CSUN Campus Station - National Weather Service Data Page - PST Time




                Date      RH     Dew  Seasonal     Current   Max Air   Min Air    Wind    Wind    Wind    Gust     Bar    Rain
                Time       %   Point      Rain    Air Temp     Since     Since   Speed    Gust     Dir     Dir   Press   Total
                               Deg F    Inches       Deg F  Midnight  Midnight     MPH     MPH                      mb  Inches
------------------------------------------------------------------------------------------------------------------------------
    02/10/2016 00:00      27    27.1      6.08        61.9      85.7      57.9       0       3     251     157    1019    0.00
    02/10/2016 00:10      27    27.5      6.08        61.8      62.3      61.3       1       4     190     176    1019    0.00
    02/10/2016 00:20      26    26.8      6.08        62.4      63.0      61.3       0       3     186     178    1019    0.00
    02/10/2016 00:30      28    26.5      6.08        62.2      63.0      61.3       0       2     137     343    1019    0.00
    02/10/2016 00:40      27    27.1      6.08        61.4      63.0      61.0       0       1     148     211    1019    0.00
    02/10/2016 00:50      26    26.7      6.08        61.0      63.0      60.8       0       2     170     199    1020    0.00
    02/10/2016 01:00      25    26.6      6.08        61.4      63.0      60.8       0       4     236     214    1020    0.00
    02/10/2016 01:10      23    25.0      6.08        62.6      63.4      60.8       0       4     253     218    1020    0.00
    02/10/2016 01:20      25    24.8      6.08        62.4      63.4      60.8       0       2     184     194    1019    0.00
    02/10/2016 01:30      26    26.1      6.08        61.6      63.4      60.8       0       3     178     185    1019    0.00
    02/10/2016 01:40      27    25.9      6.08        60.3      63.4      59.5       0       0     302     298    1019    0.00
    02/10/2016 01:50      28    26.0      6.08        59.4      63.4      59.2       0       0       0     213    1019    0.00
    02/10/2016 02:00      27    25.9      6.08        59.1      63.4      58.7       0       2     275     280    1019    0.00
    02/10/2016 02:10      25    25.0      6.08        59.3      63.4      58.7       0       3     271     256    1019    0.00
    02/10/2016 02:20      27    25.0      6.08        59.4      63.4      58.5       0       4     280     268    1019    0.00
    02/10/2016 02:30      26    24.6      6.08        59.3      63.4      58.5       0       1     289     288    1019    0.00
    02/10/2016 02:40      28    25.6      6.08        58.8      63.4      58.0       0       1     285     308    1019    0.00
    02/10/2016 02:50      32    26.2      6.08        57.6      63.4      56.9       0       0       0     344    1019    0.00
    02/10/2016 03:00      33    26.8      6.08        56.1      63.4      55.8       0       1     265     260    1019    0.00
    02/10/2016 03:10      31    26.3      6.08        55.8      63.4      55.4       0       0       0     234    1019    0.00
    02/10/2016 03:20      30    25.9      6.08        57.0      63.4      55.4       0       3     307     324    1019    0.00
    02/10/2016 03:30      28    25.2      6.08        57.8      63.4      55.4       0       4     316     233    1019    0.00
    02/10/2016 03:40      28    25.2      6.08        58.0      63.4      55.4       0       0     273     275    1019    0.00
    02/10/2016 03:50      30    25.6      6.08        57.3      63.4      55.4       0       0       0     333    1019    0.00
    02/10/2016 04:00      30    25.7      6.08        56.6      63.4      55.4       0       0       0     129    1019    0.00
    02/10/2016 04:10      31    26.1      6.08        56.5      63.4      55.4       0       0       0     154    1019    0.00
    02/10/2016 04:20      32    26.3      6.08        56.3      63.4      55.4       0       2      84      69    1019    0.00
    02/10/2016 04:30      32    26.8      6.08        56.1      63.4      55.4       0       2     298     285    1019    0.00
    02/10/2016 04:40      31    26.0      6.08        55.9      63.4      55.4       0       2     284     282    1019    0.00
    02/10/2016 04:50      31    26.0      6.08        55.9      63.4      55.4       0       0       0     258    1019    0.00
    02/10/2016 05:00      30    25.7      6.08        55.7      63.4      55.4       0       2     264     267    1019    0.00
    02/10/2016 05:10      29    24.9      6.08        56.2      63.4      55.4       0       3     261     254    1019    0.00
    02/10/2016 05:20      30    25.0      6.08        56.7      63.4      55.4       0       2     281     250    1019    0.00
    02/10/2016 05:30      29    24.9      6.08        56.0      63.4      55.4       0       3     264     251    1019    0.00
    02/10/2016 05:40      28    24.5      6.08        56.3      63.4      55.4       0       0       0      82    1019    0.00
    02/10/2016 05:50      30    24.8      6.08        56.4      63.4      55.4       0       1     354     349    1019    0.00
    02/10/2016 06:00      30    24.9      6.08        55.6      63.4      55.3       0       0       0     324    1019    0.00
    02/10/2016 06:10      31    25.6      6.08        55.3      63.4      54.8       0       1      86      85    1019    0.00
    02/10/2016 06:20      32    25.4      6.08        55.4      63.4      54.8       0       2     100     123    1019    0.00
    02/10/2016 06:30      32    25.7      6.08        54.8      63.4      54.3       0       1     123     129    1019    0.00
    02/10/2016 06:40      33    25.6      6.08        54.2      63.4      53.8       0       3     146     151    1019    0.00
    02/10/2016 06:50      33    25.6      6.08        54.2      63.4      53.8       0       0       0     252    1020    0.00
    02/10/2016 07:00      34    25.7      6.08        53.7      63.4      53.2       0       0       0      83    1020    0.00
    02/10/2016 07:10      34    26.1      6.08        53.6      63.4      53.2       0       4     288     343    1020    0.00
    02/10/2016 07:20      35    26.4      6.08        54.2      63.4      53.2       0       0       0     321    1020    0.00
    02/10/2016 07:30      35    27.1      6.08        53.8      63.4      53.2       0       0       0     199    1020    0.00
    02/10/2016 07:40      33    27.3      6.08        54.9      63.4      53.2       0       1     328     292    1020    0.00
    02/10/2016 07:50      31    27.7      6.08        57.5      63.4      53.2       0       0       0     173    1020    0.00
    02/10/2016 08:00      29    28.2      6.08        59.8      63.4      53.2       0       0       0     151    1020    0.00
    02/10/2016 08:10      28    28.4      6.08        61.5      63.4      53.2       0       0       0     260    1020    0.00
    02/10/2016 08:20      28    29.4      6.08        63.1      63.8      53.2       0       0       0     216    1020    0.00
    02/10/2016 08:30      25    29.3      6.08        64.0      64.2      53.2       0       0       0     184    1020    0.00
    02/10/2016 08:40      27    28.4      6.08        63.8      64.3      53.2       0       0       0     165    1021    0.00
    02/10/2016 08:50      28    30.7      6.08        64.7      65.4      53.2       0       0       0     129    1021    0.00
    02/10/2016 09:00      27    30.5      6.08        65.9      66.7      53.2       0       0       0     186    1021    0.00
    02/10/2016 09:10      24    30.2      6.08        68.5      70.2      53.2       0       0       0     155    1021    0.00
    02/10/2016 09:20      13    26.2      6.08        72.5      75.1      53.2       0       5     331       3    1021    0.00
    02/10/2016 09:30      13    19.8      6.08        76.0      76.7      53.2       4      10     307     246    1021    0.00
    02/10/2016 09:40      13    23.2      6.08        77.1      78.0      53.2       1       5     288     343    1021    0.00
    02/10/2016 09:50      14    25.3      6.08        76.8      78.0      53.2       1       3     200     197    1021    0.00
    02/10/2016 10:00      12    25.4      6.08        76.6      78.0      53.2       1       5     186     323    1021    0.00
    02/10/2016 10:10      11    21.0      6.08        79.0      80.1      53.2       3       8     347     320    1021    0.00
    02/10/2016 10:20      11    20.4      6.08        80.1      80.6      53.2       4      11     348       0    1021    0.00
    02/10/2016 10:30      10    20.6      6.08        81.0      81.9      53.2       3       8     352     354    1021    0.00
    02/10/2016 10:40      10    20.1      6.08        81.4      81.9      53.2       5      10     347     328    1021    0.00
    02/10/2016 10:50      10    20.9      6.08        81.6      81.9      53.2       4      10     343     328    1021    0.00
    02/10/2016 11:00      11    21.0      6.08        81.5      82.1      53.2       5      12     345     350    1020    0.00
    02/10/2016 11:10      10    20.7      6.08        81.9      82.3      53.2       5      12     355     349    1020    0.00
    02/10/2016 11:20      10    20.4      6.08        82.4      82.7      53.2       5      10     345     333    1020    0.00
    02/10/2016 11:30      10    20.3      6.08        83.0      83.4      53.2       4      13     353       5    1020    0.00
    02/10/2016 11:40       9    19.7      6.08        83.5      84.1      53.2       5      10       9     352    1020    0.00
    02/10/2016 11:50      10    19.7      6.08        83.8      84.2      53.2       6      14     355     348    1020    0.00
    02/10/2016 12:00       9    19.3      6.08        84.2      84.6      53.2       5      10     355     347    1020    0.00
    02/10/2016 12:10       9    19.1      6.08        85.0      85.5      53.2       4      10       4     348    1019    0.00
    02/10/2016 12:20       9    18.9      6.08        85.3      85.7      53.2       4       9      11      10    1019    0.00
    02/10/2016 12:30       9    19.1      6.08        85.3      86.2      53.2       3       9      43      52    1019    0.00
    02/10/2016 12:40       9    19.5      6.08        86.2      86.7      53.2       2       6      20      84    1019    0.00
    02/10/2016 12:50       9    20.5      6.08        86.5      87.3      53.2       3       7     356     354    1018    0.00
    02/10/2016 13:00       8    19.5      6.08        86.6      87.4      53.2       3      12      26       0    1018    0.00
    02/10/2016 13:10       8    19.0      6.08        86.4      87.4      53.2       3      10      42      54    1018    0.00
    02/10/2016 13:20       9    18.7      6.08        86.9      87.4      53.2       4      10      20     352    1018    0.00
    02/10/2016 13:30       8    18.9      6.08        87.8      88.3      53.2       3       8     351     335    1018    0.00
    02/10/2016 13:40       8    18.6      6.08        87.7      88.4      53.2       3       8      17      29    1018    0.00
    02/10/2016 13:50       8    17.4      6.08        88.2      88.5      53.2       2       7     351      51    1018    0.00
    02/10/2016 14:00       7    18.9      6.08        87.6      88.5      53.2       2       5     112     190    1018    0.00
    02/10/2016 14:10       7    18.2      6.08        87.9      88.7      53.2       3       7     359       0    1017    0.00
    02/10/2016 14:20       8    18.1      6.08        88.2      88.8      53.2       3       9     323     323    1017    0.00
    02/10/2016 14:30       8    17.8      6.08        88.3      88.8      53.2       3       8     342     327    1017    0.00
    02/10/2016 14:40       7    17.3      6.08        88.3      88.9      53.2       2       6     353     349    1017    0.00
    02/10/2016 14:50       7    18.1      6.08        88.5      88.9      53.2       2       8       1     351    1017    0.00
    02/10/2016 15:00       6    16.1      6.08        88.5      89.0      53.2       2       6     320     314    1017    0.00
    02/10/2016 15:10       7    15.3      6.08        87.7      89.0      53.2       4       8     335     354    1017    0.00
    02/10/2016 15:20       7    16.6      6.08        87.9      89.0      53.2       3       6     332     311    1017    0.00
    02/10/2016 15:30       7    16.6      6.08        87.9      89.0      53.2       2       5     343     333    1017    0.00
    02/10/2016 15:40       8    16.8      6.08        87.8      89.0      53.2       2       6     336     346    1017    0.00
    02/10/2016 15:50       7    18.1      6.08        87.8      89.0      53.2       2       7     323     324    1017    0.00
    02/10/2016 16:00       8    18.7      6.08        87.5      89.0      53.2       2       7     324     342    1017    0.00
    02/10/2016 16:10       9    19.8      6.08        87.1      89.0      53.2       2       7     332     354    1017    0.00
    02/10/2016 16:20       8    19.9      6.08        86.3      89.0      53.2       3       7     347     348    1017    0.00
    02/10/2016 16:30       9    19.8      6.08        85.5      89.0      53.2       2       5     324     354    1017    0.00
    02/10/2016 16:40      11    24.1      6.08        84.5      89.0      53.2       2       5     275     286    1017    0.00
    02/10/2016 16:50      15    27.7      6.08        83.0      89.0      53.2       2       6     226     249    1017    0.00
    02/10/2016 17:00      15    29.4      6.08        80.8      89.0      53.2       4       9     247     251    1017    0.00
    02/10/2016 17:10      15    28.8      6.08        80.1      89.0      53.2       2       6     277     252    1018    0.00
    02/10/2016 17:20      17    29.1      6.08        79.1      89.0      53.2       2       5     274     305    1018    0.00
    02/10/2016 17:30      16    28.8      6.08        77.8      89.0      53.2       3       7     253     256    1018    0.00
    02/10/2016 17:40      17    28.4      6.08        76.5      89.0      53.2       3       6     247     255    1018    0.00
    02/10/2016 17:50      19    28.4      6.08        75.6      89.0      53.2       2       5     261     261    1018    0.00
    02/10/2016 18:00      21    30.0      6.08        74.3      89.0      53.2       1       3     272     289    1018    0.00
    02/10/2016 18:10      23    31.6      6.08        72.8      89.0      53.2       0       2     269     291    1018    0.00
    02/10/2016 18:20      23    31.9      6.08        71.5      89.0      53.2       0       2     267     261    1018    0.00
    02/10/2016 18:30      24    31.7      6.08        70.7      89.0      53.2       0       2     220     199    1018    0.00
    02/10/2016 18:40      24    31.6      6.08        70.1      89.0      53.2       0       2     221     191    1018    0.00
    02/10/2016 18:50      25    31.6      6.08        69.3      89.0      53.2       0       0       0     248    1018    0.00
    02/10/2016 19:00      26    31.9      6.08        68.3      89.0      53.2       0       2     186     187    1018    0.00
    02/10/2016 19:10      26    30.8      6.08        67.9      89.0      53.2       0       0       0     185    1018    0.00
    02/10/2016 19:20      24    30.4      6.08        67.9      89.0      53.2       0       0       0     241    1018    0.00
    02/10/2016 19:30      25    29.7      6.08        67.8      89.0      53.2       0       0       0     159    1018    0.00
    02/10/2016 19:40      27    30.5      6.08        67.2      89.0      53.2       0       0       0       8    1018    0.00
    02/10/2016 19:50      28    31.6      6.08        65.9      89.0      53.2       0       0       0      64    1018    0.00
    02/10/2016 20:00      28    32.4      6.08        65.5      89.0      53.2       0       1     341     338    1018    0.00
    02/10/2016 20:10      30    32.3      6.08        65.3      89.0      53.2       0       1     336     341    1018    0.00
    02/10/2016 20:20      32    33.3      6.08        63.9      89.0      53.2       0       0       0     346    1018    0.00
    02/10/2016 20:30      32    33.0      6.08        63.4      89.0      53.2       0       0       0     249    1018    0.00
    02/10/2016 20:40      32    32.5      6.08        62.9      89.0      53.2       0       0       0     238    1018    0.00
    02/10/2016 20:50      33    32.6      6.08        62.7      89.0      53.2       0       0       0     299    1018    0.00
    02/10/2016 21:00      33    33.1      6.08        62.3      89.0      53.2       0       0       0     283    1018    0.00
    02/10/2016 21:10      33    32.7      6.08        62.1      89.0      53.2       0       0       0     252    1018    0.00
    02/10/2016 21:20      34    33.0      6.08        61.7      89.0      53.2       0       0       0     101    1018    0.00
    02/10/2016 21:30      36    33.2      6.08        61.1      89.0      53.2       0       0       0      70    1018    0.00
    02/10/2016 21:40      36    33.5      6.08        60.7      89.0      53.2       0       2     149     158    1018    0.00
    02/10/2016 21:50      36    33.2      6.08        60.7      89.0      53.2       0       0       0     174    1019    0.00
    02/10/2016 22:00      35    33.1      6.08        61.0      89.0      53.2       0       2     301     339    1019    0.00
    02/10/2016 22:10      35    32.8      6.08        61.0      89.0      53.2       0       1     316     343    1019    0.00
    02/10/2016 22:20      33    32.5      6.08        60.9      89.0      53.2       0       0       0     233    1019    0.00
    02/10/2016 22:30      36    33.0      6.08        60.7      89.0      53.2       0       0       0     305    1019    0.00
    02/10/2016 22:40      35    32.4      6.08        60.2      89.0      53.2       0       0       0     323    1019    0.00
    02/10/2016 22:50      34    31.8      6.08        60.2      89.0      53.2       0       0       0       2    1019    0.00
    02/10/2016 23:00      35    31.6      6.08        59.9      89.0      53.2       0       0       0     347    1019    0.00
    02/10/2016 23:10      34    31.9      6.08        59.5      89.0      53.2       0       0       0       4    1019    0.00
    02/10/2016 23:20      35    31.4      6.08        59.0      89.0      53.2       0       0       0     328    1019    0.00
    02/10/2016 23:30      35    31.2      6.08        58.9      89.0      53.2       0       0     223     223    1019    0.00
    02/10/2016 23:40      35    31.0      6.08        58.5      89.0      53.2       0       0       0     273    1019    0.00
    02/10/2016 23:50      31    30.0      6.08        58.8      89.0      53.2       0       2     288     323    1018    0.00
    02/11/2016 00:00      33    29.4      6.08        59.3      89.0      53.2       0       1     332     331    1018    0.00
    02/11/2016 00:10      34    29.9      6.08        58.8      59.3      58.3       0       0       0     296    1018    0.00
    02/11/2016 00:20      34    30.2      6.08        58.0      59.3      57.7       0       0       0     336    1018    0.00
    02/11/2016 00:30      34    30.1      6.08        58.2      59.3      57.7       0       1     332     331    1018    0.00
    02/11/2016 00:40      36    30.0      6.08        57.7      59.3      57.4       0       0       0     325    1018    0.00
    02/11/2016 00:50      35    30.5      6.08        57.5      59.3      57.3       0       0       0     326    1018    0.00
    02/11/2016 01:00      36    30.7      6.08        57.5      59.3      57.3       0       0       0     340    1018    0.00
    02/11/2016 01:10      39    31.3      6.08        57.1      59.3      56.8       0       0       0     351    1018    0.00
    02/11/2016 01:20      39    31.9      6.08        56.5      59.3      56.0       0       0       0     351    1018    0.00
    02/11/2016 01:30      38    31.0      6.08        55.9      59.3      55.7       0       0       0      46    1018    0.00
    02/11/2016 01:40      41    31.5      6.08        55.9      59.3      55.6       0       0       0     220    1018    0.00
    02/11/2016 01:50      40    31.9      6.08        55.7      59.3      55.4       0       0       0     320    1018    0.00
    02/11/2016 02:00      40    31.9      6.08        55.6      59.3      55.3       0       0       0     347    1018    0.00
    02/11/2016 02:10      41    31.7      6.08        55.4      59.3      55.2       0       0       0     329    1018    0.00
    02/11/2016 02:20      42    32.3      6.08        55.5      59.3      55.2       0       0       0       2    1018    0.00
    02/11/2016 02:30      41    32.5      6.08        55.2      59.3      55.0       0       0       0     349    1018    0.00
    02/11/2016 02:40      42    32.1      6.08        54.9      59.3      54.6       0       0       0     346    1018    0.00
    02/11/2016 02:50      41    32.3      6.08        55.0      59.3      54.6       0       0       0     354    1018    0.00
    02/11/2016 03:00      41    31.6      6.08        54.6      59.3      54.1       0       0       0     354    1018    0.00
    02/11/2016 03:10      42    31.5      6.08        54.5      59.3      54.1       0       0       0     330    1018    0.00
    02/11/2016 03:20      41    31.4      6.08        54.4      59.3      54.1       0       0       0     334    1018    0.00
    02/11/2016 03:30      42    31.2      6.08        54.1      59.3      53.5       0       0       0     312    1018    0.00
    02/11/2016 03:40      42    31.2      6.08        53.8      59.3      53.5       0       0       0     338    1018    0.00
    02/11/2016 03:50      42    31.3      6.08        53.5      59.3      53.2       0       2     321     330    1018    0.00
    02/11/2016 04:00      42    30.8      6.08        53.6      59.3      53.2       0       0     312     332    1018    0.00
    02/11/2016 04:10      41    30.8      6.08        53.5      59.3      53.2       0       2     340     342    1018    0.00
    02/11/2016 04:20      42    30.7      6.08        53.5      59.3      53.1       0       0       0      12    1018    0.00
    02/11/2016 04:30      42    30.6      6.08        52.9      59.3      52.7       0       2      75      68    1018    0.00
    02/11/2016 04:40      42    30.6      6.08        53.1      59.3      52.7       0       0       0      29    1018    0.00
    02/11/2016 04:50      42    30.6      6.08        52.8      59.3      52.4       0       0       0     144    1018    0.00
    02/11/2016 05:00      42    30.4      6.08        53.0      59.3      52.4       0       0       0     122    1018    0.00
    02/11/2016 05:10      42    30.1      6.08        52.7      59.3      52.4       0       0       0     270    1018    0.00
    02/11/2016 05:20      41    30.1      6.08        52.8      59.3      52.2       0       0       0     286    1018    0.00
    02/11/2016 05:30      41    30.1      6.08        52.9      59.3      52.2       0       0       0     264    1018    0.00
    02/11/2016 05:40      40    29.9      6.08        52.8      59.3      52.2       0       0       0     334    1018    0.00
    02/11/2016 05:50      41    29.9      6.08        52.9      59.3      52.2       0       0       0     345    1018    0.00
    02/11/2016 06:00      40    29.5      6.08        52.7      59.3      52.2       0       0       0     318    1018    0.00
    02/11/2016 06:10      41    29.2      6.08        52.5      59.3      52.2       0       0       0     324    1018    0.00
    02/11/2016 06:20      42    29.5      6.08        52.3      59.3      52.0       0       0       0     320    1018    0.00
    02/11/2016 06:30      43    29.9      6.08        52.0      59.3      51.6       0       0       0     319    1018    0.00
    02/11/2016 06:40      43    29.9      6.08        51.5      59.3      51.3       0       0       0      91    1018    0.00
    02/11/2016 06:50      42    29.6      6.08        51.9      59.3      51.3       0       0       0     341    1018    0.00
    02/11/2016 07:00      42    30.0      6.08        52.2      59.3      51.3       0       0       0     160    1018    0.00
    02/11/2016 07:10      44    30.3      6.08        52.3      59.3      51.3       0       2      88      90    1018    0.00
    02/11/2016 07:20      42    30.5      6.08        52.6      59.3      51.3       0       0       0      49    1018    0.00
    02/11/2016 07:30      41    31.1      6.08        54.2      59.3      51.3       0       0       0     286    1018    0.00
    02/11/2016 07:40      40    32.1      6.08        55.8      59.3      51.3       0       0       0     274    1018    0.00
    02/11/2016 07:50      31    30.6      6.08        59.3      61.6      51.3       0       0       0     235    1018    0.00
    02/11/2016 08:00      28    30.0      6.08        61.6      61.9      51.3       0       2     256     258    1019    0.00
    02/11/2016 08:10      26    28.9      6.08        62.4      63.0      51.3       0       2     256     257    1019    0.00
    02/11/2016 08:20      25    28.6      6.08        64.1      65.3      51.3       0       0       0     259    1019    0.00
    02/11/2016 08:30      23    26.2      6.08        65.0      65.3      51.3       0       2     265     258    1019    0.00
    02/11/2016 08:40      22    25.6      6.08        65.2      65.5      51.3       0       3     248     259    1019    0.00
    02/11/2016 08:50      25    26.8      6.08        66.0      66.8      51.3       0       3     245     241    1019    0.00
    02/11/2016 09:00      24    29.3      6.08        67.2      68.0      51.3       0       3     200     197    1019    0.00
    02/11/2016 09:10      21    28.9      6.08        68.8      69.9      51.3       2       3     197     188    1019    0.00
    02/11/2016 09:20      18    27.5      6.08        71.0      72.1      51.3       0       2     209     179    1019    0.00
    02/11/2016 09:30      20    26.7      6.08        72.8      73.8      51.3       0       2     205     210    1019    0.00
    02/11/2016 09:40      16    26.1      6.08        73.8      74.7      51.3       0       2     188     187    1019    0.00
    02/11/2016 09:50      16    25.7      6.08        74.4      75.0      51.3       2       3     200     185    1019    0.00
    02/11/2016 10:00      16    24.8      6.08        75.4      76.1      51.3       1       3     208     208    1019    0.00
    02/11/2016 10:10      14    25.4      6.08        76.2      76.8      51.3       1       3     206     179    1019    0.00
    02/11/2016 10:20      16    26.0      6.08        76.5      77.2      51.3       3       4     187     192    1019    0.00
    02/11/2016 10:30      15    25.5      6.08        77.0      78.4      51.3       2       4     192     195    1019    0.00
    02/11/2016 10:40      15    26.1      6.08        78.4      79.0      51.3       2       3     194     194    1019    0.00
    02/11/2016 10:50      16    27.7      6.08        78.8      79.7      51.3       2       3     180     175    1019    0.00
    02/11/2016 11:00      13    25.4      6.08        80.3      81.1      51.3       0       2     210     204    1019    0.00
    02/11/2016 11:10      12    22.7      6.08        81.8      82.3      51.3       0       2     317     306    1019    0.00
    02/11/2016 11:20      10    22.2      6.08        82.7      83.2      51.3       2       6      73      59    1019    0.00
    02/11/2016 11:30      10    19.9      6.08        81.8      83.2      51.3       2       5      47      51    1019    0.00
    02/11/2016 11:40      11    21.4      6.08        82.6      83.4      51.3       2       5     108     105    1019    0.00
    02/11/2016 11:50      10    21.6      6.08        83.0      83.4      51.3       2       5     116     135    1019    0.00
    02/11/2016 12:00      11    20.7      6.08        83.3      83.8      51.3       1       5     118     113    1018    0.00
    02/11/2016 12:10      11    22.9      6.08        84.3      85.2      51.3       2       4     146     153    1018    0.00
    02/11/2016 12:20       9    22.4      6.08        84.0      85.3      51.3       3       7     128     152    1018    0.00
    02/11/2016 12:30       9    22.1      6.08        84.0      85.3      51.3       3       6     144     159    1018    0.00
    02/11/2016 12:40      10    22.0      6.08        84.4      85.3      51.3       3       7     145     149    1018    0.00
    02/11/2016 12:50       9    22.7      6.08        84.5      85.3      51.3       4       8     129     105    1018    0.00
    02/11/2016 13:00       9    21.7      6.08        84.4      85.3      51.3       2       7     115      92    1017    0.00
    02/11/2016 13:10      11    21.3      6.08        85.2      85.7      51.3       2       7      55      54    1017    0.00
    02/11/2016 13:20      11    21.5      6.08        85.2      85.7      51.3       2       7     100      91    1017    0.00
    02/11/2016 13:30       9    22.0      6.08        86.1      86.6      51.3       3       7     125     121    1017    0.00
    02/11/2016 13:40       9    21.9      6.08        86.1      86.6      51.3       2       6     125     150    1017    0.00
    02/11/2016 13:50       9    20.1      6.08        86.3      86.8      51.3       3       7     115      97    1017    0.00
    02/11/2016 14:00       9    20.2      6.08        85.5      86.8      51.3       4       7     133     153    1017    0.00
    02/11/2016 14:10       8    21.3      6.08        86.2      87.2      51.3       3       6     164     163    1017    0.00
    02/11/2016 14:20       9    21.9      6.08        87.1      87.8      51.3       3       6     156     168    1017    0.00
    02/11/2016 14:30       8    21.1      6.08        87.6      88.3      51.3       3       6     143     151    1017    0.00
    02/11/2016 14:40       8    19.7      6.08        86.8      88.3      51.3       2       8      90     152    1017    0.00
    02/11/2016 14:50       9    20.7      6.08        87.0      88.3      51.3       1       5     132     152    1016    0.00
    02/11/2016 15:00       9    22.3      6.08        87.7      88.4      51.3       2       6     181     126    1016    0.00
    02/11/2016 15:10       9    21.7      6.08        86.9      88.4      51.3       3       6     162     168    1016    0.00
    02/11/2016 15:20       8    20.6      6.08        86.6      88.4      51.3       2       5     157     159    1016    0.00
    02/11/2016 15:30       9    21.5      6.08        86.5      88.4      51.3       2       5     122     156    1017    0.00
    02/11/2016 15:40       9    21.7      6.08        86.4      88.4      51.3       3       5     196     199    1017    0.00
    02/11/2016 15:50       8    20.3      6.08        87.7      88.4      51.3       0       3     232     227    1017    0.00
    02/11/2016 16:00      12    23.2      6.08        87.7      88.4      51.3       3       8     246     250    1017    0.00
    02/11/2016 16:10      12    27.7      6.08        85.3      88.4      51.3       4       9     280     298    1017    0.00
    02/11/2016 16:20      13    27.4      6.08        83.4      88.4      51.3       4       9     275     257    1017    0.00
    02/11/2016 16:30      14    27.5      6.08        82.4      88.4      51.3       4       9     280     306    1017    0.00
    02/11/2016 16:40      14    28.2      6.08        82.0      88.4      51.3       4       6     284     295    1017    0.00
    02/11/2016 16:50      15    29.1      6.08        81.4      88.4      51.3       4       6     244     252    1017    0.00
    02/11/2016 17:00      15    28.5      6.08        80.2      88.4      51.3       4       9     244     257    1017    0.00
    02/11/2016 17:10      16    28.4      6.08        79.4      88.4      51.3       5       9     259     253    1017    0.00
    02/11/2016 17:20      16    28.1      6.08        78.3      88.4      51.3       4      10     263     250    1017    0.00
    02/11/2016 17:30      16    27.8      6.08        77.3      88.4      51.3       5      11     257     244    1017    0.00
    02/11/2016 17:40      17    27.5      6.08        76.7      88.4      51.3       4       9     259     247    1017    0.00
    02/11/2016 17:50      17    27.6      6.08        75.4      88.4      51.3       2       5     251     260    1018    0.00
    02/11/2016 18:00      19    27.8      6.08        73.9      88.4      51.3       0       2     210     204    1018    0.00
    02/11/2016 18:10      18    27.9      6.08        72.7      88.4      51.3       2       6     232     253    1018    0.00
    02/11/2016 18:20      18    27.1      6.08        72.9      88.4      51.3       2       5     243     254    1018    0.00
    02/11/2016 18:30      18    28.5      6.08        72.4      88.4      51.3       3       4     273     300    1018    0.00
    02/11/2016 18:40      20    28.7      6.08        72.4      88.4      51.3       2       4     268     252    1018    0.00
    02/11/2016 18:50      21    29.9      6.08        71.4      88.4      51.3       1       4     269     247    1018    0.00
    02/11/2016 19:00      23    30.0      6.08        70.8      88.4      51.3       2       3     257     260    1018    0.00
    02/11/2016 19:10      24    30.5      6.08        69.7      88.4      51.3       0       0     359     353    1018    0.00
    02/11/2016 19:20      26    31.6      6.08        68.8      88.4      51.3       0       0       0     289    1018    0.00
    02/11/2016 19:30      27    32.1      6.08        67.8      88.4      51.3       0       1     336     335    1018    0.00
    02/11/2016 19:40      27    32.5      6.08        67.5      88.4      51.3       0       0       0     344    1018    0.00
    02/11/2016 19:50      30    33.0      6.08        66.6      88.4      51.3       0       0       0      23    1018    0.00
    02/11/2016 20:00      31    33.8      6.08        65.5      88.4      51.3       0       0       0     341    1018    0.00
    02/11/2016 20:10      33    34.6      6.08        64.3      88.4      51.3       0       1     283     275    1019    0.00
    02/11/2016 20:20      35    34.2      6.08        64.0      88.4      51.3       0       0       0     317    1019    0.00
    02/11/2016 20:30      36    35.3      6.08        63.4      88.4      51.3       0       0       0     338    1019    0.00
    02/11/2016 20:40      40    36.2      6.08        62.5      88.4      51.3       0       0       0     347    1019    0.00
    02/11/2016 20:50      38    36.5      6.08        61.8      88.4      51.3       0       0       0      48    1019    0.00
    02/11/2016 21:00      38    36.2      6.08        61.7      88.4      51.3       0       0       0     306    1019    0.00
    02/11/2016 21:10      39    36.3      6.08        61.6      88.4      51.3       0       0       0      10    1019    0.00
    02/11/2016 21:20      38    35.9      6.08        61.6      88.4      51.3       0       0       0     330    1019    0.00
    02/11/2016 21:30      38    35.7      6.08        61.6      88.4      51.3       0       2     347     349    1019    0.00
    02/11/2016 21:40      38    35.6      6.08        61.3      88.4      51.3       0       0       0     354    1019    0.00
    02/11/2016 21:50      39    35.2      6.08        60.8      88.4      51.3       0       0       0       1    1019    0.00
    02/11/2016 22:00      38    35.4      6.08        60.5      88.4      51.3       0       1     348     346    1019    0.00
    02/11/2016 22:10      38    35.5      6.08        60.8      88.4      51.3       0       0       0     355    1019    0.00
    02/11/2016 22:20      39    34.8      6.08        61.3      88.4      51.3       0       0       0     352    1019    0.00
    02/11/2016 22:30      40    35.1      6.08        59.8      88.4      51.3       0       1     349     349    1019    0.00
    02/11/2016 22:40      39    34.9      6.08        59.0      88.4      51.3       0       0       0      27    1019    0.00
    02/11/2016 22:50      42    34.6      6.08        58.1      88.4      51.3       0       0       0     340    1019    0.00
    02/11/2016 23:00      42    34.9      6.08        57.4      88.4      51.3       0       0       0     333    1019    0.00
    02/11/2016 23:10      43    34.6      6.08        57.5      88.4      51.3       0       0       0      12    1019    0.00
    02/11/2016 23:20      45    35.3      6.08        56.7      88.4      51.3       0       0       0      30    1019    0.00
    02/11/2016 23:30      42    35.0      6.08        56.6      88.4      51.3       0       0       0      29    1019    0.00
    02/11/2016 23:40      41    34.3      6.08        57.5      88.4      51.3       0       0     342     342    1019    0.00
    02/11/2016 23:50      42    34.6      6.08        57.2      88.4      51.3       0       0       0     345    1019    0.00
    02/12/2016 00:00      44    34.9      6.08        56.8      88.4      51.3       0       0       0     354    1019    0.00
    02/12/2016 00:10      43    34.5      6.08        56.5      56.7      56.2       0       0       0      62    1019    0.00
    02/12/2016 00:20      45    34.5      6.08        56.4      56.8      56.2       0       0       0     310    1019    0.00
    02/12/2016 00:30      46    34.8      6.08        56.0      56.8      55.3       0       0       0     313    1019    0.00
    02/12/2016 00:40      45    34.8      6.08        55.2      56.8      54.9       0       0       0     311    1019    0.00
    02/12/2016 00:50      48    34.9      6.08        55.4      56.8      54.9       0       0       0      38    1019    0.00
    02/12/2016 01:00      46    34.8      6.08        55.1      56.8      54.8       0       0       0      56    1019    0.00
    02/12/2016 01:10      48    34.9      6.08        55.1      56.8      54.8       0       0       0     339    1019    0.00
    02/12/2016 01:20      48    35.1      6.08        54.4      56.8      54.0       0       0       0      50    1019    0.00
    02/12/2016 01:30      48    34.9      6.08        54.0      56.8      53.7       0       0       0     106    1019    0.00
    02/12/2016 01:40      47    35.0      6.08        54.4      56.8      53.7       0       0       0     354    1019    0.00
    02/12/2016 01:50      49    34.8      6.08        54.3      56.8      53.7       0       0       0     305    1019    0.00
    02/12/2016 02:00      50    34.7      6.08        53.5      56.8      53.3       0       0       0     290    1019    0.00
    02/12/2016 02:10      49    34.9      6.08        53.4      56.8      53.2       0       0       0     305    1018    0.00
    02/12/2016 02:20      48    34.1      6.08        53.2      56.8      53.0       0       0       0     284    1018    0.00
    02/12/2016 02:30      51    34.7      6.08        53.1      56.8      52.6       0       0       0     333    1018    0.00
    02/12/2016 02:40      49    34.4      6.08        52.4      56.8      52.0       0       0       0     319    1018    0.00
    02/12/2016 02:50      48    33.9      6.08        52.6      56.8      52.0       0       0       0     313    1018    0.00
    02/12/2016 03:00      49    34.0      6.08        52.6      56.8      52.0       0       0       0       2    1018    0.00
    02/12/2016 03:10      48    33.7      6.08        52.7      56.8      52.0       0       0       0     347    1018    0.00
    02/12/2016 03:20      47    33.4      6.08        53.1      56.8      52.0       0       0       0     340    1018    0.00
    02/12/2016 03:30      48    33.4      6.08        52.9      56.8      52.0       0       0       0     351    1018    0.00
    02/12/2016 03:40      49    33.4      6.08        52.3      56.8      52.0       0       0       0      55    1018    0.00
    02/12/2016 03:50      49    33.4      6.08        52.0      56.8      51.7       0       0       0     302    1018    0.00
    02/12/2016 04:00      50    33.5      6.08        51.7      56.8      51.5       0       0       0     315    1018    0.00
    02/12/2016 04:10      49    33.7      6.08        51.8      56.8      51.5       0       0       0      42    1018    0.00
    02/12/2016 04:20      50    33.6      6.08        51.9      56.8      51.5       0       0       0     351    1018    0.00
    02/12/2016 04:30      52    33.9      6.08        51.7      56.8      51.1       0       0       0      59    1018    0.00
    02/12/2016 04:40      51    34.0      6.08        50.8      56.8      50.4       0       0       0      67    1018    0.00
    02/12/2016 04:50      51    33.6      6.08        51.3      56.8      50.4       0       0       0     317    1018    0.00
    02/12/2016 05:00      51    33.9      6.08        51.4      56.8      50.4       0       0       0     345    1018    0.00
    02/12/2016 05:10      50    33.9      6.08        51.6      56.8      50.4       0       0       0     333    1018    0.00
    02/12/2016 05:20      50    33.5      6.08        52.0      56.8      50.4       0       0       0       4    1018    0.00
    02/12/2016 05:30      52    33.5      6.08        51.1      56.8      50.4       0       0       0       0    1018    0.00
    02/12/2016 05:40      52    33.6      6.08        50.5      56.8      50.2       0       0       0     354    1018    0.00
    02/12/2016 05:50      52    33.6      6.08        51.0      56.8      50.2       0       0       0      44    1018    0.00
    02/12/2016 06:00      51    33.7      6.08        51.1      56.8      50.2       0       0       0      68    1018    0.00
    02/12/2016 06:10      51    33.3      6.08        50.7      56.8      50.2       0       0       0     316    1018    0.00
    02/12/2016 06:20      53    33.4      6.08        50.2      56.8      50.0       0       0       0     305    1018    0.00
    02/12/2016 06:30      53    33.7      6.08        49.9      56.8      49.6       0       0       0     330    1018    0.00
    02/12/2016 06:40      52    33.6      6.08        50.2      56.8      49.6       0       0       0     318    1018    0.00
    02/12/2016 06:50      53    33.8      6.08        50.4      56.8      49.6       0       0       0     341    1018    0.00
    02/12/2016 07:00      52    33.7      6.08        50.5      56.8      49.6       0       0       0     338    1018    0.00
    02/12/2016 07:10      53    33.8      6.08        50.4      56.8      49.6       0       0       0     333    1019    0.00
    02/12/2016 07:20      52    34.2      6.08        50.7      56.8      49.6       0       0       0     330    1019    0.00
    02/12/2016 07:30      49    34.4      6.08        52.5      56.8      49.6       0       0       0     328    1019    0.00
    02/12/2016 07:40      46    34.4      6.08        54.7      56.8      49.6       0       0       0     297    1019    0.00
    02/12/2016 07:50      39    34.2      6.08        57.4      59.6      49.6       0       0       0     274    1019    0.00
    02/12/2016 08:00      35    33.9      6.08        60.7      61.2      49.6       0       0       0     294    1019    0.00
    02/12/2016 08:10      30    31.9      6.08        62.3      64.3      49.6       0       0       0     165    1019    0.00
    02/12/2016 08:20      29    32.5      6.08        65.5      66.1      49.6       0       0       0     181    1019    0.00
    02/12/2016 08:30      28    32.8      6.08        66.2      66.5      49.6       0       0       0     194    1019    0.00
    02/12/2016 08:40      25    30.9      6.08        66.0      66.5      49.6       0       0       0     220    1019    0.00
    02/12/2016 08:50      27    30.5      6.08        66.1      66.5      49.6       0       2     190     203    1019    0.00
    02/12/2016 09:00      26    30.4      6.08        66.3      66.5      49.6       0       1     234     247    1019    0.00
    02/12/2016 09:10      24    29.7      6.08        67.2      67.8      49.6       0       3     248     253    1019    0.00
    02/12/2016 09:20      23    29.7      6.08        68.5      69.1      49.6       0       3     252     248    1019    0.00
    02/12/2016 09:30      24    29.7      6.08        69.3      70.2      49.6       1       4     245     239    1019    0.00
    02/12/2016 09:40      20    29.5      6.08        71.2      71.9      49.6       0       2     252     233    1019    0.00
    02/12/2016 09:50      23    29.9      6.08        72.3      73.1      49.6       1       3     200     173    1019    0.00
    02/12/2016 10:00      18    31.0      6.08        72.9      73.7      49.6       1       3     176     174    1019    0.00
    02/12/2016 10:10      18    28.6      6.08        74.0      74.6      49.6       0       3     187     147    1019    0.00
    02/12/2016 10:20      17    28.7      6.08        75.2      75.9      49.6       0       2     194     199    1019    0.00
    02/12/2016 10:30      18    29.6      6.08        76.3      76.7      49.6       3       5     194     189    1019    0.00
    02/12/2016 10:40      17    31.6      6.08        76.8      77.9      49.6       4       6     187     197    1019    0.00
    02/12/2016 10:50      12    28.1      6.08        78.9      80.0      49.6       3       7     143      64    1019    0.00
    02/12/2016 11:00      11    23.4      6.08        80.2      80.8      49.6       4       7      87      73    1019    0.00
    02/12/2016 11:10      12    22.9      6.08        80.9      81.7      49.6       3       6     102      90    1019    0.00
    02/12/2016 11:20      13    23.0      6.08        81.6      81.9      49.6       3       8      80      63    1018    0.00
    02/12/2016 11:30      12    23.0      6.08        81.8      82.3      49.6       2       6      55      34    1018    0.00
    02/12/2016 11:40      11    24.0      6.08        82.4      82.7      49.6       3       7     102      87    1018    0.00
    02/12/2016 11:50      11    22.8      6.08        82.2      82.7      49.6       3       7      67      86    1018    0.00
    02/12/2016 12:00      10    23.4      6.08        82.5      83.2      49.6       3       6      91      51    1018    0.00
    02/12/2016 12:10      11    23.4      6.08        82.8      83.2      49.6       3       6     114     143    1018    0.00
    02/12/2016 12:20      11    24.6      6.08        83.5      84.1      49.6       2       5     123     159    1018    0.00
    02/12/2016 12:30      12    24.6      6.08        84.2      84.6      49.6       2       7     165     170    1017    0.00
    02/12/2016 12:40      12    24.6      6.08        83.7      84.6      49.6       2       6     152     182    1017    0.00
    02/12/2016 12:50      11    24.0      6.08        84.8      85.4      49.6       1       6     168     165    1017    0.00
    02/12/2016 13:00      13    23.8      6.08        84.7      85.7      49.6       2       5     121     172    1017    0.00
    02/12/2016 13:10      10    25.1      6.08        85.1      86.0      49.6       2       4     208     188    1017    0.00
    02/12/2016 13:20      11    24.1      6.08        85.4      86.0      49.6       1       5     185     210    1016    0.00
    02/12/2016 13:30      13    25.4      6.08        85.5      86.1      49.6       3       8     134     157    1016    0.00
    02/12/2016 13:40      12    25.5      6.08        85.0      86.1      49.6       3       7     161     169    1016    0.00
    02/12/2016 13:50      10    25.3      6.08        84.9      86.1      49.6       3       7     199     145    1016    0.00
    02/12/2016 14:00      12    25.3      6.08        85.4      86.1      49.6       3       5     157     175    1016    0.00
    02/12/2016 14:10      10    23.9      6.08        86.3      87.0      49.6       1       3      62      45    1016    0.00
    02/12/2016 14:20      10    25.2      6.08        86.4      87.0      49.6       3       6     188     188    1016    0.00
    02/12/2016 14:30      10    23.9      6.08        87.0      87.6      49.6       1       4     243     233    1016    0.00
    02/12/2016 14:40       9    24.6      6.08        87.2      88.2      49.6       3       7     168     162    1016    0.00
    02/12/2016 14:50       9    22.7      6.08        86.8      88.2      49.6       2       5     221     189    1016    0.00
    02/12/2016 15:00       8    22.0      6.08        86.6      88.2      49.6       2       4     162     319    1016    0.00
    02/12/2016 15:10      10    20.5      6.08        86.7      88.2      49.6       1       4      98     164    1016    0.00
    02/12/2016 15:20       9    20.4      6.08        86.5      88.2      49.6       2       5     206     214    1015    0.00
    02/12/2016 15:30      10    21.3      6.08        86.2      88.2      49.6       3       6     198     194    1015    0.00
    02/12/2016 15:40       7    19.1      6.08        86.5      88.2      49.6       0       2     202     175    1015    0.00
    02/12/2016 15:50       9    18.8      6.08        87.9      88.4      49.6       1       5     187     173    1016    0.00
    02/12/2016 16:00      12    22.4      6.08        86.4      88.4      49.6       3       8     180     209    1016    0.00
    02/12/2016 16:10      13    28.4      6.08        85.2      88.4      49.6       2       6     234     232    1016    0.00
    02/12/2016 16:20      15    29.6      6.08        83.8      88.4      49.6       3       6     247     253    1016    0.00
    02/12/2016 16:30      15    29.9      6.08        82.5      88.4      49.6       4       9     253     243    1016    0.00
    02/12/2016 16:40      16    30.5      6.08        81.8      88.4      49.6       4       8     268     263    1016    0.00
    02/12/2016 16:50      16    31.1      6.08        81.2      88.4      49.6       4       8     286     310    1016    0.00
    02/12/2016 17:00      17    30.9      6.08        80.4      88.4      49.6       4       8     275     248    1016    0.00
    02/12/2016 17:10      18    31.3      6.08        79.4      88.4      49.6       3       8     274     268    1016    0.00
    02/12/2016 17:20      20    32.1      6.08        78.5      88.4      49.6       3       7     264     244    1016    0.00
    02/12/2016 17:30      22    33.9      6.08        77.3      88.4      49.6       3       8     264     236    1016    0.00
    02/12/2016 17:40      22    34.4      6.08        76.2      88.4      49.6       1       5     271     268    1016    0.00
    02/12/2016 17:50      24    34.6      6.08        75.1      88.4      49.6       2       4     254     255    1016    0.00
    02/12/2016 18:00      25    35.1      6.08        73.6      88.4      49.6       2       4     250     252    1016    0.00
    02/12/2016 18:10      25    34.8      6.08        72.5      88.4      49.6       2       5     248     252    1016    0.00
    02/12/2016 18:20      25    34.3      6.08        72.2      88.4      49.6       3       5     250     242    1016    0.00
    02/12/2016 18:30      26    34.1      6.08        72.0      88.4      49.6       2       5     256     239    1016    0.00
    02/12/2016 18:40      26    34.5      6.08        70.9      88.4      49.6       2       5     232     255    1016    0.00
    02/12/2016 18:50      26    34.1      6.08        70.3      88.4      49.6       2       3     232     226    1017    0.00
    02/12/2016 19:00      28    34.3      6.08        69.6      88.4      49.6       0       2     259     267    1017    0.00
    02/12/2016 19:10      29    34.3      6.08        68.6      88.4      49.6       1       2     253     250    1017    0.00
    02/12/2016 19:20      29    34.5      6.08        67.8      88.4      49.6       1       3     259     261    1017    0.00
    02/12/2016 19:30      29    34.5      6.08        67.5      88.4      49.6       0       3     269     256    1017    0.00
    02/12/2016 19:40      30    34.8      6.08        67.4      88.4      49.6       0       1     312     340    1017    0.00
    02/12/2016 19:50      29    34.5      6.08        67.1      88.4      49.6       0       1     297     282    1017    0.00
    02/12/2016 20:00      30    34.6      6.08        66.6      88.4      49.6       0       0       0     317    1017    0.00
    02/12/2016 20:10      31    34.2      6.08        66.5      88.4      49.6       0       2      71      59    1017    0.00
    02/12/2016 20:20      33    35.1      6.08        65.7      88.4      49.6       0       1      94      88    1017    0.00
    02/12/2016 20:30      35    35.5      6.08        64.3      88.4      49.6       0       0       0      76    1017    0.00
    02/12/2016 20:40      37    35.6      6.08        62.9      88.4      49.6       0       0       0     122    1017    0.00
    02/12/2016 20:50      39    36.8      6.08        62.0      88.4      49.6       0       1     142     136    1017    0.00
    02/12/2016 21:00      36    36.1      6.08        62.8      88.4      49.6       0       0     328     321    1017    0.00
    02/12/2016 21:10      36    35.8      6.08        63.1      88.4      49.6       0       0       0     338    1017    0.00
    02/12/2016 21:20      38    36.5      6.08        62.0      88.4      49.6       0       0       0     331    1017    0.00
    02/12/2016 21:30      40    36.5      6.08        61.7      88.4      49.6       0       0       0     351    1017    0.00
    02/12/2016 21:40      40    36.7      6.08        61.2      88.4      49.6       0       0       0     335    1017    0.00
    02/12/2016 21:50      40    36.3      6.08        60.9      88.4      49.6       0       0       0     341    1017    0.00
    02/12/2016 22:00      41    36.3      6.08        60.3      88.4      49.6       0       0       0     323    1017    0.00
    02/12/2016 22:10      41    36.4      6.08        59.8      88.4      49.6       0       0       0     319    1017    0.00
    02/12/2016 22:20      42    36.4      6.08        59.6      88.4      49.6       0       0       0     328    1017    0.00
    02/12/2016 22:30      42    36.3      6.08        59.6      88.4      49.6       0       0       0       2    1017    0.00
    02/12/2016 22:40      44    36.4      6.08        59.2      88.4      49.6       0       0       0      46    1017    0.00
    02/12/2016 22:50      45    36.8      6.08        58.3      88.4      49.6       0       0       0      63    1017    0.00
    02/12/2016 23:00      45    36.9      6.08        58.2      88.4      49.6       0       0       0     323    1018    0.00
    02/12/2016 23:10      46    36.8      6.08        58.1      88.4      49.6       0       0       0     336    1018    0.00
    02/12/2016 23:20      45    37.0      6.08        57.8      88.4      49.6       0       0       0     345    1018    0.00
    02/12/2016 23:30      44    36.6      6.08        58.1      88.4      49.6       0       0       0      44    1018    0.00
    02/12/2016 23:40      47    36.6      6.08        57.9      88.4      49.6       0       0       0      43    1018    0.00
    02/12/2016 23:50      46    37.0      6.08        57.6      88.4      49.6       0       0       0      19    1018    0.00
    02/13/2016 00:00      48    36.8      6.08        57.0      88.4      49.6       0       0       0     328    1018    0.00
    02/13/2016 00:10      49    37.1      6.08        56.5      56.8      56.1       0       0       0      76    1018    0.00
    02/13/2016 00:20      49    37.1      6.08        56.0      56.8      55.7       0       0       0     292    1018    0.00
    02/13/2016 00:30      48    37.0      6.08        56.1      56.8      55.7       0       0     306     308    1018    0.00
    02/13/2016 00:40      49    36.9      6.08        56.0      56.8      55.5       0       0       0     261    1018    0.00
    02/13/2016 00:50      49    36.9      6.08        55.5      56.8      55.1       0       0       0     299    1018    0.00
    02/13/2016 01:00      51    37.0      6.08        55.2      56.8      54.8       0       0     284     287    1018    0.00
    02/13/2016 01:10      51    37.0      6.08        54.7      56.8      54.5       0       0       0     313    1018    0.00
    02/13/2016 01:20      53    37.0      6.08        54.3      56.8      53.9       0       0       0     319    1018    0.00
    02/13/2016 01:30      52    37.1      6.08        54.3      56.8      53.9       0       0       0     326    1017    0.00
    02/13/2016 01:40      52    37.0      6.08        54.2      56.8      53.9       0       0       0     345    1017    0.00
    02/13/2016 01:50      51    36.7      6.08        54.4      56.8      53.9       0       0       0     346    1017    0.00
    02/13/2016 02:00      52    36.5      6.08        54.2      56.8      53.8       0       0       0      18    1017    0.00
    02/13/2016 02:10      53    36.6      6.08        53.4      56.8      53.1       0       0       0      25    1017    0.00
    02/13/2016 02:20      52    36.8      6.08        53.7      56.8      53.1       0       0       0      33    1017    0.00
    02/13/2016 02:30      54    36.7      6.08        53.4      56.8      53.0       0       0       0       0    1017    0.00
    02/13/2016 02:40      53    36.8      6.08        53.3      56.8      53.0       0       0       0      32    1017    0.00
    02/13/2016 02:50      51    36.5      6.08        53.6      56.8      53.0       0       0      10      18    1017    0.00
    02/13/2016 03:00      50    35.9      6.08        53.8      56.8      53.0       0       1     345     344    1017    0.00
    02/13/2016 03:10      49    35.2      6.08        53.5      56.8      53.0       0       0       0     332    1017    0.00
    02/13/2016 03:20      51    35.1      6.08        53.1      56.8      52.7       0       0       0     332    1017    0.00
    02/13/2016 03:30      52    35.2      6.08        52.6      56.8      52.4       0       0       0     313    1017    0.00
    02/13/2016 03:40      52    35.1      6.08        52.4      56.8      51.9       0       0       0     347    1017    0.00
    02/13/2016 03:50      54    35.0      6.08        51.6      56.8      51.3       0       0       0      71    1017    0.00
    02/13/2016 04:00      53    34.8      6.08        51.5      56.8      51.0       0       0       0      70    1017    0.00
    02/13/2016 04:10      54    34.8      6.08        50.9      56.8      50.7       0       0       0     323    1017    0.00
    02/13/2016 04:20      53    34.7      6.08        50.9      56.8      50.6       0       0       0     304    1017    0.00
    02/13/2016 04:30      52    34.2      6.08        51.1      56.8      50.6       0       0       0     335    1017    0.00
    02/13/2016 04:40      50    33.9      6.08        51.6      56.8      50.6       0       0     353      34    1017    0.00
    02/13/2016 04:50      49    33.4      6.08        51.6      56.8      50.6       0       0       0     310    1018    0.00
    02/13/2016 05:00      52    33.6      6.08        51.4      56.8      50.6       0       0       0     333    1018    0.00
    02/13/2016 05:10      52    33.5      6.08        51.0      56.8      50.3       0       1     313     298    1018    0.00
    02/13/2016 05:20      53    33.4      6.08        50.4      56.8      50.1       0       0       0       0    1018    0.00
    02/13/2016 05:30      52    33.6      6.08        50.3      56.8      50.1       0       1     346     345    1018    0.00
    02/13/2016 05:40      55    33.5      6.08        50.1      56.8      49.5       0       0       0     323    1018    0.00
    02/13/2016 05:50      54    33.8      6.08        49.7      56.8      49.3       0       0     310     311    1018    0.00
    02/13/2016 06:00      55    33.8      6.08        49.5      56.8      49.0       0       0       0     305    1018    0.00
    02/13/2016 06:10      55    33.8      6.08        49.3      56.8      49.0       0       0       0     276    1018    0.00
    02/13/2016 06:20      55    33.9      6.08        49.1      56.8      48.9       0       0       0     196    1018    0.00
    02/13/2016 06:30      56    34.1      6.08        49.2      56.8      48.9       0       0       0     248    1018    0.00
    02/13/2016 06:40      57    34.1      6.08        48.8      56.8      48.5       0       0       0     293    1018    0.00
    02/13/2016 06:50      57    34.2      6.08        48.6      56.8      48.4       0       0       0     240    1018    0.00
    02/13/2016 07:00      58    34.2      6.08        48.8      56.8      48.3       0       1      61      64    1018    0.00
    02/13/2016 07:10      60    34.6      6.08        48.1      56.8      47.8       0       0       0      61    1018    0.00
    02/13/2016 07:20      57    35.1      6.08        49.0      56.8      47.8       0       0       0     285    1018    0.00
    02/13/2016 07:30      53    35.3      6.08        50.6      56.8      47.8       0       0     295     290    1018    0.00
    02/13/2016 07:40      48    35.2      6.08        53.1      56.8      47.8       0       0       0     332    1018    0.00
    02/13/2016 07:50      44    34.9      6.08        55.6      56.8      47.8       0       3     295     289    1018    0.00
    02/13/2016 08:00      38    35.0      6.08        58.0      60.0      47.8       0       0     278     277    1018    0.00
    02/13/2016 08:10      37    35.6      6.08        61.1      62.0      47.8       0       0       0     250    1018    0.00
    02/13/2016 08:20      32    33.2      6.08        63.2      64.3      47.8       0       0       0      17    1018    0.00
    02/13/2016 08:30      30    32.1      6.08        64.3      64.8      47.8       0       2     246     228    1018    0.00
    02/13/2016 08:40      32    32.0      6.08        63.4      64.8      47.8       0       1     231     246    1018    0.00
    02/13/2016 08:50      30    32.5      6.08        63.9      64.8      47.8       0       2     209     196    1018    0.00
    02/13/2016 09:00      31    31.8      6.08        64.2      64.8      47.8       0       2     219     185    1018    0.00
    02/13/2016 09:10      29    33.0      6.08        65.5      66.5      47.8       0       3     209     214    1018    0.00
    02/13/2016 09:20      28    33.2      6.08        66.9      67.6      47.8       2       4     185     173    1018    0.00
    02/13/2016 09:30      25    32.2      6.08        68.1      68.7      47.8       1       3     195     178    1018    0.00
    02/13/2016 09:40      25    31.7      6.08        68.5      69.0      47.8       1       3     189     181    1018    0.00
    02/13/2016 09:50      24    31.5      6.08        69.7      70.2      47.8       0       2     198     196    1018    0.00
    02/13/2016 10:00      24    30.6      6.08        70.1      71.0      47.8       0       2     212     197    1018    0.00
    02/13/2016 10:10      22    30.0      6.08        71.0      71.5      47.8       1       3     249     219    1018    0.00
    02/13/2016 10:20      20    30.7      6.08        72.6      73.5      47.8       0       4     191     208    1018    0.00
    02/13/2016 10:30      18    29.5      6.08        74.1      75.0      47.8       0       3     179     175    1018    0.00
    02/13/2016 10:40      17    28.1      6.08        75.1      75.8      47.8       1       3     189     195    1017    0.00
    02/13/2016 10:50      16    27.6      6.08        76.3      77.0      47.8       1       3     166     187    1017    0.00
    02/13/2016 11:00      17    28.4      6.08        77.4      78.0      47.8       3       4     175     166    1017    0.00
    02/13/2016 11:10      14    26.9      6.08        78.6      79.3      47.8       1       4     137     137    1017    0.00
    02/13/2016 11:20      17    28.6      6.08        79.2      79.7      47.8       3       5     168     165    1017    0.00
    02/13/2016 11:30      13    27.3      6.08        80.1      81.1      47.8       1       4     186     189    1017    0.00